Time;durP1;ratioP1;P1;durP2;ratioP2;P2;SDS_P1;SDS_P2;PMS_P1;PMS_P2;Temp;Humidity;BMP_temperature;BMP_pressure;BME280_temperature;BME280_humidity;BME280_pressure;Samples;Min_cycle;Max_cycle;Signal;HPM_P1;HPM_P2
2022/03/19 00:00:30;;;;;;;;;;;5.10;99.90;;;;;;5032348;28;19925;-76
2022/03/19 00:02:57;;;;;;;;;;;5.10;99.90;;;;;;5026190;28;19925;-73
2022/03/19 00:05:23;;;;;;;;;;;5.10;99.90;;;;;;5014008;28;20353;-75
2022/03/19 00:07:50;;;;;;;;;;;5.10;99.90;;;;;;5014817;28;19932;-77
2022/03/19 00:10:17;;;;;;;;;;;5.10;99.90;;;;;;5029994;28;19925;-75
2022/03/19 00:12:43;;;;;;;;;;;5.20;99.90;;;;;;5015093;28;19925;-75
2022/03/19 00:15:10;;;;;;;;;;;5.20;99.90;;;;;;5016398;28;19925;-73
2022/03/19 00:17:36;;;;;;;;;;;5.20;99.90;;;;;;5015477;28;19932;-75
2022/03/19 00:20:03;;;;;;;;;;;5.20;99.90;;;;;;5017579;28;19925;-76
2022/03/19 00:22:30;;;;;;;;;;;5.10;99.90;;;;;;5026981;28;19979;-76
2022/03/19 00:24:56;;;;;;;;;;;5.10;99.90;;;;;;5017795;28;19933;-76
2022/03/19 00:27:24;;;;;;;;;;;5.10;99.90;;;;;;5024992;28;19933;-75
2022/03/19 00:29:50;;;;;;;;;;;5.10;99.90;;;;;;5022808;28;20383;-74
2022/03/19 00:32:17;;;;;;;;;;;5.10;99.90;;;;;;5021645;28;20289;-75
2022/03/19 00:34:43;;;;;;;;;;;5.10;99.90;;;;;;5020977;28;19932;-74
2022/03/19 00:37:10;;;;;;;;;;;5.10;99.90;;;;;;5029331;28;19925;-75
2022/03/19 00:39:37;;;;;;;;;;;5.00;99.90;;;;;;5020111;28;19926;-74
2022/03/19 00:42:03;;;;;;;;;;;5.00;99.90;;;;;;5013140;28;19925;-74
2022/03/19 00:44:30;;;;;;;;;;;5.00;99.90;;;;;;5027982;28;19936;-74
2022/03/19 00:46:56;;;;;;;;;;;5.00;99.90;;;;;;5013384;28;19932;-76
2022/03/19 00:49:23;;;;;;;;;;;4.90;99.90;;;;;;5010290;28;19929;-75
2022/03/19 00:51:49;;;;;;;;;;;4.90;99.90;;;;;;5030159;28;19936;-75
2022/03/19 00:54:16;;;;;;;;;;;4.80;99.90;;;;;;5029686;28;19932;-76
2022/03/19 00:56:42;;;;;;;;;;;4.80;99.90;;;;;;5023926;28;20017;-78
2022/03/19 00:59:09;;;;;;;;;;;4.70;99.90;;;;;;5008691;28;19929;-75
2022/03/19 01:01:36;;;;;;;;;;;4.60;99.90;;;;;;5014028;28;20377;-73
2022/03/19 01:04:02;;;;;;;;;;;4.60;99.90;;;;;;5021011;28;19933;-75
2022/03/19 01:06:29;;;;;;;;;;;4.50;99.90;;;;;;5018149;28;19933;-75
2022/03/19 01:08:56;;;;;;;;;;;4.50;99.90;;;;;;5027548;28;19925;-79
2022/03/19 01:11:23;;;;;;;;;;;4.50;99.90;;;;;;5027231;28;19925;-75
2022/03/19 01:13:49;;;;;;;;;;;4.40;99.90;;;;;;5023150;28;20025;-75
2022/03/19 01:16:17;;;;;;;;;;;4.40;99.90;;;;;;5028861;28;20123;-75
2022/03/19 01:18:43;;;;;;;;;;;4.30;99.90;;;;;;5022037;28;19932;-75
2022/03/19 01:21:10;;;;;;;;;;;4.30;99.90;;;;;;5020292;28;19925;-78
2022/03/19 01:23:36;;;;;;;;;;;4.20;99.90;;;;;;5030760;28;19925;-74
2022/03/19 01:26:03;;;;;;;;;;;4.20;99.90;;;;;;5013229;28;19932;-75
2022/03/19 01:28:29;;;;;;;;;;;4.20;99.90;;;;;;5014215;28;19936;-75
2022/03/19 01:30:56;;;;;;;;;;;4.20;99.90;;;;;;5020361;28;19925;-78
2022/03/19 01:33:23;;;;;;;;;;;4.10;99.90;;;;;;5025610;28;19925;-76
2022/03/19 01:35:49;;;;;;;;;;;4.10;99.90;;;;;;5024682;28;19936;-74
2022/03/19 01:38:16;;;;;;;;;;;4.10;99.90;;;;;;5012905;28;19937;-75
2022/03/19 01:40:42;;;;;;;;;;;3.90;99.90;;;;;;5016738;28;20274;-75
2022/03/19 01:43:09;;;;;;;;;;;3.90;99.90;;;;;;5012358;28;20369;-75
2022/03/19 01:45:35;;;;;;;;;;;3.80;99.90;;;;;;5025453;28;19932;-74
2022/03/19 01:48:02;;;;;;;;;;;3.80;99.90;;;;;;5012430;28;19940;-74
2022/03/19 01:50:28;;;;;;;;;;;3.70;99.90;;;;;;5029350;28;19932;-74
2022/03/19 01:52:55;;;;;;;;;;;3.70;99.90;;;;;;5029799;28;19932;-76
2022/03/19 01:55:21;;;;;;;;;;;3.70;99.90;;;;;;5001396;28;19944;-75
2022/03/19 01:57:48;;;;;;;;;;;3.70;99.90;;;;;;5006075;28;19929;-75
2022/03/19 02:00:16;;;;;;;;;;;3.60;99.90;;;;;;5010641;28;19925;-74
2022/03/19 02:02:43;;;;;;;;;;;3.70;99.90;;;;;;5012288;28;19925;-74
2022/03/19 02:05:09;;;;;;;;;;;3.60;99.90;;;;;;5024430;28;19933;-76
2022/03/19 02:07:36;;;;;;;;;;;3.60;99.90;;;;;;5015687;28;19960;-74
2022/03/19 02:10:03;;;;;;;;;;;3.60;99.90;;;;;;5008744;28;19925;-75
2022/03/19 02:12:29;;;;;;;;;;;3.60;99.90;;;;;;5015552;28;19925;-74
2022/03/19 02:14:57;;;;;;;;;;;3.50;99.90;;;;;;5027182;28;19932;-74
2022/03/19 02:17:26;;;;;;;;;;;3.50;99.90;;;;;;5009072;28;20368;-74
2022/03/19 02:19:52;;;;;;;;;;;3.40;99.90;;;;;;5010621;28;19931;-75
2022/03/19 02:22:19;;;;;;;;;;;3.50;99.90;;;;;;5035786;28;19932;-75
2022/03/19 02:27:29;;;;;;;;;;;3.30;99.90;;;;;;5024919;28;19948;-75
2022/03/19 02:29:56;;;;;;;;;;;3.40;99.90;;;;;;5031709;28;20400;-75
2022/03/19 02:32:23;;;;;;;;;;;3.40;99.90;;;;;;5023576;28;20351;-74
2022/03/19 02:34:50;;;;;;;;;;;3.30;99.90;;;;;;5025775;28;20372;-75
2022/03/19 02:37:16;;;;;;;;;;;3.30;99.90;;;;;;5027031;28;19925;-75
2022/03/19 02:39:43;;;;;;;;;;;3.30;99.90;;;;;;5032827;28;19932;-75
2022/03/19 02:42:09;;;;;;;;;;;3.30;99.90;;;;;;5017204;28;19925;-75
2022/03/19 02:44:36;;;;;;;;;;;3.30;99.90;;;;;;5005478;28;19926;-75
2022/03/19 02:47:02;;;;;;;;;;;3.30;99.90;;;;;;5016378;28;19928;-79
2022/03/19 02:49:29;;;;;;;;;;;3.30;99.90;;;;;;5031943;28;19925;-75
2022/03/19 02:51:55;;;;;;;;;;;3.30;99.90;;;;;;5031584;28;20028;-75
2022/03/19 02:54:22;;;;;;;;;;;3.20;99.90;;;;;;5011369;28;19926;-75
2022/03/19 02:56:48;;;;;;;;;;;3.20;99.90;;;;;;5033532;28;20376;-75
2022/03/19 02:59:17;;;;;;;;;;;3.30;99.90;;;;;;5018104;28;20357;-75
2022/03/19 03:01:43;;;;;;;;;;;3.20;99.90;;;;;;5029425;28;19925;-75
2022/03/19 03:04:10;;;;;;;;;;;3.30;99.90;;;;;;5017962;28;19996;-75
2022/03/19 03:06:36;;;;;;;;;;;3.30;99.90;;;;;;5033588;28;19925;-76
2022/03/19 03:09:03;;;;;;;;;;;3.30;99.90;;;;;;5027927;28;19952;-75
2022/03/19 03:11:30;;;;;;;;;;;3.30;99.90;;;;;;5028370;28;20312;-76
2022/03/19 03:13:56;;;;;;;;;;;3.30;99.90;;;;;;5017789;28;20373;-74
2022/03/19 03:16:23;;;;;;;;;;;3.30;99.90;;;;;;5033010;28;19926;-75
2022/03/19 03:18:49;;;;;;;;;;;3.30;99.90;;;;;;5032742;28;19925;-76
2022/03/19 03:21:16;;;;;;;;;;;3.30;99.90;;;;;;5023044;28;19925;-75
2022/03/19 03:23:42;;;;;;;;;;;3.30;99.90;;;;;;5030023;28;19929;-78
2022/03/19 03:26:09;;;;;;;;;;;3.30;99.90;;;;;;5011942;28;19933;-75
2022/03/19 03:28:35;;;;;;;;;;;3.30;99.90;;;;;;5021103;28;19929;-75
2022/03/19 03:31:02;;;;;;;;;;;3.30;99.90;;;;;;5010855;28;20384;-75
2022/03/19 03:33:28;;;;;;;;;;;3.30;99.90;;;;;;5007607;28;20368;-74
2022/03/19 03:35:55;;;;;;;;;;;3.30;99.90;;;;;;5023826;28;19925;-75
2022/03/19 03:38:22;;;;;;;;;;;3.30;99.90;;;;;;5022342;28;19929;-74
2022/03/19 03:40:48;;;;;;;;;;;3.30;99.90;;;;;;5006822;28;19929;-74
2022/03/19 03:43:15;;;;;;;;;;;3.40;99.90;;;;;;5015102;28;19925;-75
2022/03/19 03:45:41;;;;;;;;;;;3.30;99.90;;;;;;5030534;28;19963;-74
2022/03/19 03:48:09;;;;;;;;;;;3.40;99.90;;;;;;5029114;28;19925;-78
2022/03/19 03:50:35;;;;;;;;;;;3.30;99.90;;;;;;5032328;28;19933;-75
2022/03/19 03:53:02;;;;;;;;;;;3.30;99.90;;;;;;5023365;28;19933;-75
2022/03/19 03:55:28;;;;;;;;;;;3.30;99.90;;;;;;5009047;28;19928;-73
2022/03/19 03:57:55;;;;;;;;;;;3.30;99.90;;;;;;5008196;28;19932;-75
2022/03/19 04:00:21;;;;;;;;;;;3.20;99.90;;;;;;5020408;28;19949;-73
2022/03/19 04:02:48;;;;;;;;;;;3.30;99.90;;;;;;5011257;28;20334;-74
2022/03/19 04:05:14;;;;;;;;;;;3.20;99.90;;;;;;5027334;28;20024;-74
2022/03/19 04:07:41;;;;;;;;;;;3.20;99.90;;;;;;5023345;28;19952;-74
2022/03/19 04:10:07;;;;;;;;;;;3.10;99.90;;;;;;5025399;28;20292;-75
2022/03/19 04:12:34;;;;;;;;;;;3.00;99.90;;;;;;5024777;28;19973;-74
2022/03/19 04:15:01;;;;;;;;;;;3.00;99.90;;;;;;5024893;28;19925;-74
2022/03/19 04:17:27;;;;;;;;;;;3.00;99.90;;;;;;5028916;28;19933;-75
2022/03/19 04:19:54;;;;;;;;;;;3.00;99.90;;;;;;5032303;28;20269;-74
2022/03/19 04:22:20;;;;;;;;;;;2.90;99.90;;;;;;5032285;28;20415;-74
2022/03/19 04:24:47;;;;;;;;;;;2.90;99.90;;;;;;5019744;28;19932;-74
2022/03/19 04:27:14;;;;;;;;;;;2.90;99.90;;;;;;5017123;28;19926;-74
2022/03/19 04:29:40;;;;;;;;;;;3.00;99.90;;;;;;5021831;28;19925;-75
2022/03/19 04:32:07;;;;;;;;;;;3.00;99.90;;;;;;5029137;28;19929;-75
2022/03/19 04:34:33;;;;;;;;;;;3.00;99.90;;;;;;5021873;28;19933;-75
2022/03/19 04:37:00;;;;;;;;;;;3.00;99.90;;;;;;5027728;28;19932;-74
2022/03/19 04:39:28;;;;;;;;;;;3.00;99.90;;;;;;5005772;28;20132;-75
2022/03/19 04:41:55;;;;;;;;;;;3.00;99.90;;;;;;5020088;28;19931;-75
2022/03/19 04:44:22;;;;;;;;;;;3.10;99.90;;;;;;5022121;28;20434;-74
2022/03/19 04:46:48;;;;;;;;;;;3.00;99.90;;;;;;5025215;28;20008;-74
2022/03/19 04:49:15;;;;;;;;;;;3.00;99.90;;;;;;5019974;28;19948;-76
2022/03/19 04:51:41;;;;;;;;;;;3.00;99.90;;;;;;5031953;28;19926;-75
2022/03/19 04:54:08;;;;;;;;;;;3.10;99.90;;;;;;5027185;28;19925;-76
2022/03/19 04:56:34;;;;;;;;;;;3.10;99.90;;;;;;5017437;28;20326;-75
2022/03/19 04:59:01;;;;;;;;;;;3.10;99.90;;;;;;5002017;28;20396;-75
2022/03/19 05:01:27;;;;;;;;;;;3.10;99.90;;;;;;5025394;28;20369;-75
2022/03/19 05:03:54;;;;;;;;;;;3.10;99.90;;;;;;5028309;28;19964;-75
2022/03/19 05:06:21;;;;;;;;;;;3.00;99.90;;;;;;5019272;28;19925;-75
2022/03/19 05:11:12;;;;;;;;;;;3.00;99.90;;;;;;5015376;28;20380;-75
2022/03/19 05:11:33;;;;;;;;;;;2.80;99.90;;;;;;5020744;28;20537;-75
2022/03/19 05:13:59;;;;;;;;;;;2.70;99.90;;;;;;5009504;28;19925;-78
2022/03/19 05:16:26;;;;;;;;;;;2.70;99.90;;;;;;5031022;28;19932;-74
2022/03/19 05:18:52;;;;;;;;;;;2.70;99.90;;;;;;5023056;28;19929;-75
2022/03/19 05:21:19;;;;;;;;;;;2.70;99.90;;;;;;5029052;28;20393;-75
2022/03/19 05:23:46;;;;;;;;;;;2.60;99.90;;;;;;5018965;28;19948;-75
2022/03/19 05:26:12;;;;;;;;;;;2.60;99.90;;;;;;5008843;28;19983;-75
2022/03/19 05:28:39;;;;;;;;;;;2.50;99.90;;;;;;5024307;28;19932;-75
2022/03/19 05:31:05;;;;;;;;;;;2.50;99.90;;;;;;5030901;28;19932;-75
2022/03/19 05:36:16;;;;;;;;;;;2.50;99.90;;;;;;5026893;28;19929;-78
2022/03/19 05:38:43;;;;;;;;;;;2.50;99.90;;;;;;5014899;28;19929;-73
2022/03/19 05:41:09;;;;;;;;;;;2.40;99.90;;;;;;5012341;28;19932;-75
2022/03/19 05:43:36;;;;;;;;;;;2.40;99.90;;;;;;5020534;28;19921;-74
2022/03/19 05:46:02;;;;;;;;;;;2.30;99.90;;;;;;5002213;28;19929;-73
2022/03/19 05:48:29;;;;;;;;;;;2.40;99.90;;;;;;5019240;28;19926;-74
2022/03/19 05:50:55;;;;;;;;;;;2.30;99.90;;;;;;5013520;28;19929;-74
2022/03/19 05:53:22;;;;;;;;;;;2.40;99.90;;;;;;5028803;28;19935;-75
2022/03/19 05:55:49;;;;;;;;;;;2.50;99.90;;;;;;5035751;28;19926;-74
2022/03/19 05:58:15;;;;;;;;;;;2.50;99.90;;;;;;5031382;28;19948;-74
2022/03/19 06:00:42;;;;;;;;;;;2.60;99.90;;;;;;5002399;28;19933;-75
2022/03/19 06:03:08;;;;;;;;;;;2.60;99.90;;;;;;5027134;28;20034;-75
2022/03/19 06:05:35;;;;;;;;;;;2.70;99.90;;;;;;5005187;28;20372;-75
2022/03/19 06:08:01;;;;;;;;;;;2.80;99.90;;;;;;5024202;28;19929;-75
2022/03/19 06:10:28;;;;;;;;;;;2.90;99.90;;;;;;5020345;28;19925;-74
2022/03/19 06:12:55;;;;;;;;;;;3.00;99.90;;;;;;5023579;28;19932;-75
2022/03/19 06:15:21;;;;;;;;;;;3.10;99.90;;;;;;5031372;28;19925;-75
2022/03/19 06:17:48;;;;;;;;;;;3.10;99.90;;;;;;5041264;28;19925;-75
2022/03/19 06:20:14;;;;;;;;;;;3.20;99.90;;;;;;5025496;28;19932;-75
2022/03/19 06:22:41;;;;;;;;;;;3.30;99.90;;;;;;5016620;28;19987;-73
2022/03/19 06:25:08;;;;;;;;;;;3.50;99.90;;;;;;5011912;28;19925;-75
2022/03/19 06:27:34;;;;;;;;;;;3.70;99.90;;;;;;5016826;28;19925;-75
2022/03/19 06:30:01;;;;;;;;;;;3.70;99.90;;;;;;5012947;28;20295;-75
2022/03/19 06:32:27;;;;;;;;;;;3.90;99.90;;;;;;5023334;28;20265;-77
2022/03/19 06:34:54;;;;;;;;;;;4.10;99.90;;;;;;5021638;28;19925;-75
2022/03/19 06:37:19;;;;;;;;;;;4.10;99.90;;;;;;5027931;28;19925;-78
2022/03/19 06:39:46;;;;;;;;;;;4.20;99.90;;;;;;5019797;28;19925;-73
2022/03/19 06:42:12;;;;;;;;;;;4.30;99.90;;;;;;5029377;28;20387;-74
2022/03/19 06:44:39;;;;;;;;;;;4.40;99.90;;;;;;5018872;28;19940;-75
2022/03/19 06:47:06;;;;;;;;;;;4.50;99.90;;;;;;5016918;28;19972;-75
2022/03/19 06:49:32;;;;;;;;;;;4.60;99.90;;;;;;5021900;28;19933;-75
2022/03/19 06:51:59;;;;;;;;;;;4.70;99.90;;;;;;5010933;28;19936;-75
2022/03/19 06:54:25;;;;;;;;;;;4.70;99.90;;;;;;5013488;28;19951;-75
2022/03/19 06:56:52;;;;;;;;;;;4.80;99.90;;;;;;5010959;28;19933;-76
2022/03/19 06:59:18;;;;;;;;;;;5.00;99.90;;;;;;4997451;28;20016;-75
2022/03/19 07:01:45;;;;;;;;;;;5.10;99.90;;;;;;5014361;28;19944;-74
2022/03/19 07:04:12;;;;;;;;;;;5.20;99.90;;;;;;5017604;28;19933;-74
2022/03/19 07:06:38;;;;;;;;;;;5.20;99.90;;;;;;4998239;28;19932;-74
2022/03/19 07:09:05;;;;;;;;;;;5.40;99.90;;;;;;5013937;28;19933;-76
2022/03/19 07:11:31;;;;;;;;;;;5.60;99.90;;;;;;5012008;28;19941;-77
2022/03/19 07:13:58;;;;;;;;;;;5.70;99.90;;;;;;4998371;28;19925;-75
2022/03/19 07:16:24;;;;;;;;;;;5.80;99.90;;;;;;4998834;28;19934;-79
2022/03/19 07:18:51;;;;;;;;;;;6.10;99.90;;;;;;5015486;28;19939;-76
2022/03/19 07:21:18;;;;;;;;;;;6.30;99.90;;;;;;5012717;28;19925;-76
2022/03/19 07:23:44;;;;;;;;;;;6.40;99.90;;;;;;4994796;28;19929;-76
2022/03/19 07:26:11;;;;;;;;;;;6.60;99.90;;;;;;4995140;28;19933;-75
2022/03/19 07:28:37;;;;;;;;;;;6.70;99.90;;;;;;4997388;28;19936;-76
2022/03/19 07:31:04;;;;;;;;;;;6.90;99.90;;;;;;5000066;28;19929;-76
2022/03/19 07:33:33;;;;;;;;;;;7.10;99.90;;;;;;4998162;28;19936;-76
2022/03/19 07:36:00;;;;;;;;;;;7.20;99.90;;;;;;5016824;28;19941;-76
2022/03/19 07:38:27;;;;;;;;;;;7.30;99.90;;;;;;5017168;28;20009;-79
2022/03/19 07:43:38;;;;;;;;;;;7.60;99.90;;;;;;4998526;28;19925;-76
2022/03/19 07:46:04;;;;;;;;;;;7.70;99.90;;;;;;4999911;28;19929;-76
2022/03/19 07:48:31;;;;;;;;;;;7.90;99.90;;;;;;4998135;28;19933;-76
2022/03/19 07:50:57;;;;;;;;;;;8.10;99.90;;;;;;5014662;28;19926;-76
2022/03/19 07:53:24;;;;;;;;;;;8.00;99.90;;;;;;4997295;28;19929;-77
2022/03/19 07:55:53;;;;;;;;;;;8.10;99.90;;;;;;5015442;28;19925;-74
2022/03/19 07:58:19;;;;;;;;;;;8.20;99.90;;;;;;4997916;28;19926;-76
2022/03/19 08:00:46;;;;;;;;;;;8.20;99.90;;;;;;5013746;28;20017;-77
2022/03/19 08:03:13;;;;;;;;;;;8.30;99.90;;;;;;4997249;28;19980;-76
2022/03/19 08:05:39;;;;;;;;;;;8.40;99.90;;;;;;4998926;28;20292;-76
2022/03/19 08:08:06;;;;;;;;;;;8.40;99.90;;;;;;5017180;28;19930;-77
2022/03/19 08:10:33;;;;;;;;;;;8.50;99.90;;;;;;5000571;28;19933;-76
2022/03/19 08:12:59;;;;;;;;;;;8.60;99.90;;;;;;5003485;28;19936;-77
2022/03/19 08:15:26;;;;;;;;;;;8.60;99.90;;;;;;4997105;28;19926;-77
2022/03/19 08:17:53;;;;;;;;;;;8.70;99.90;;;;;;4997039;28;19932;-77
2022/03/19 08:20:20;;;;;;;;;;;8.70;99.90;;;;;;4997788;28;19932;-77
2022/03/19 08:22:47;;;;;;;;;;;8.70;99.90;;;;;;4997401;28;19925;-77
2022/03/19 08:25:14;;;;;;;;;;;8.80;99.90;;;;;;5000184;28;20293;-77
2022/03/19 08:27:40;;;;;;;;;;;8.90;99.90;;;;;;5019503;28;20857;-77
2022/03/19 08:30:07;;;;;;;;;;;9.00;99.90;;;;;;4996224;28;19932;-77
2022/03/19 08:32:34;;;;;;;;;;;9.00;99.90;;;;;;5016080;28;19940;-78
2022/03/19 08:35:01;;;;;;;;;;;9.00;99.90;;;;;;4999474;28;19932;-76
2022/03/19 08:37:27;;;;;;;;;;;9.00;99.90;;;;;;4999878;28;19925;-77
2022/03/19 08:42:38;;;;;;;;;;;9.30;99.90;;;;;;5012073;28;20265;-77
2022/03/19 08:45:05;;;;;;;;;;;9.40;99.90;;;;;;4995848;28;19936;-77
2022/03/19 08:47:31;;;;;;;;;;;9.40;99.90;;;;;;5002267;28;19926;-79
2022/03/19 08:49:59;;;;;;;;;;;9.50;99.90;;;;;;5010009;28;19925;-77
2022/03/19 08:52:27;;;;;;;;;;;9.50;99.90;;;;;;5015037;28;20361;-77
2022/03/19 08:54:53;;;;;;;;;;;9.50;99.90;;;;;;4997668;28;20364;-77
2022/03/19 08:57:20;;;;;;;;;;;9.50;99.90;;;;;;4999704;28;19925;-77
2022/03/19 08:59:46;;;;;;;;;;;9.50;99.90;;;;;;5002396;28;20400;-77
2022/03/19 09:02:13;;;;;;;;;;;9.60;99.90;;;;;;5015126;28;19981;-76
2022/03/19 09:04:40;;;;;;;;;;;9.60;99.90;;;;;;5000036;28;20008;-76
2022/03/19 09:07:06;;;;;;;;;;;9.60;99.90;;;;;;5014254;28;20288;-76
2022/03/19 09:09:33;;;;;;;;;;;9.60;99.90;;;;;;5011816;28;19961;-79
2022/03/19 09:11:59;;;;;;;;;;;9.50;99.90;;;;;;5014387;28;19933;-77
2022/03/19 09:14:27;;;;;;;;;;;9.60;99.90;;;;;;5014706;28;19925;-76
2022/03/19 09:16:53;;;;;;;;;;;9.70;99.90;;;;;;5017470;28;20083;-76
2022/03/19 09:19:20;;;;;;;;;;;9.80;99.90;;;;;;5005038;28;20024;-76
2022/03/19 09:21:46;;;;;;;;;;;9.80;99.90;;;;;;5012473;28;20381;-77
2022/03/19 09:24:15;;;;;;;;;;;9.90;99.90;;;;;;5015467;28;20017;-76
2022/03/19 09:26:41;;;;;;;;;;;10.00;99.90;;;;;;5015188;28;19925;-75
2022/03/19 09:29:09;;;;;;;;;;;9.90;99.90;;;;;;5019369;28;20344;-77
2022/03/19 09:31:35;;;;;;;;;;;9.80;99.90;;;;;;4998512;28;19930;-77
2022/03/19 09:34:02;;;;;;;;;;;9.80;99.90;;;;;;5003162;28;20368;-76
2022/03/19 09:36:29;;;;;;;;;;;9.80;99.90;;;;;;5001545;28;19932;-76
2022/03/19 09:38:55;;;;;;;;;;;9.90;99.90;;;;;;5001920;28;19936;-76
2022/03/19 09:41:22;;;;;;;;;;;10.00;99.90;;;;;;5014708;28;19930;-76
2022/03/19 09:43:48;;;;;;;;;;;10.10;99.90;;;;;;5000742;28;19964;-77
2022/03/19 09:46:15;;;;;;;;;;;10.10;99.90;;;;;;4996077;28;19933;-76
2022/03/19 09:48:42;;;;;;;;;;;10.20;99.90;;;;;;5013445;28;19925;-76
2022/03/19 09:51:08;;;;;;;;;;;10.30;99.90;;;;;;5014086;28;19933;-76
2022/03/19 09:53:35;;;;;;;;;;;10.30;99.90;;;;;;5017147;28;20040;-79
2022/03/19 09:56:03;;;;;;;;;;;10.20;99.50;;;;;;5013725;28;19925;-76
2022/03/19 09:58:29;;;;;;;;;;;10.20;97.90;;;;;;4998414;28;19935;-77
2022/03/19 10:00:56;;;;;;;;;;;10.30;99.00;;;;;;4998087;28;20462;-76
2022/03/19 10:03:23;;;;;;;;;;;10.40;98.50;;;;;;4994013;28;20380;-76
2022/03/19 10:08:37;;;;;;;;;;;10.30;98.00;;;;;;5011914;28;19930;-77
2022/03/19 10:11:03;;;;;;;;;;;10.60;98.70;;;;;;4994595;28;20349;-76
2022/03/19 10:13:30;;;;;;;;;;;10.60;98.90;;;;;;5016744;28;20374;-77
2022/03/19 10:15:56;;;;;;;;;;;10.70;98.60;;;;;;5015636;28;20512;-76
2022/03/19 10:18:23;;;;;;;;;;;10.90;98.70;;;;;;5000662;28;19929;-76
2022/03/19 10:20:49;;;;;;;;;;;10.90;98.50;;;;;;4994738;28;20357;-77
2022/03/19 10:23:16;;;;;;;;;;;11.00;98.20;;;;;;5000550;28;20396;-77
2022/03/19 10:25:42;;;;;;;;;;;10.90;98.10;;;;;;5013616;28;20384;-77
2022/03/19 10:28:11;;;;;;;;;;;11.00;98.30;;;;;;4996313;28;20001;-77
2022/03/19 10:30:37;;;;;;;;;;;11.00;98.30;;;;;;5020506;28;19929;-79
2022/03/19 10:33:04;;;;;;;;;;;11.20;98.60;;;;;;5001562;28;19925;-78
2022/03/19 10:35:30;;;;;;;;;;;11.30;97.60;;;;;;5002779;28;19933;-77
2022/03/19 10:37:57;;;;;;;;;;;11.20;96.90;;;;;;5002554;28;20449;-77
2022/03/19 10:40:23;;;;;;;;;;;11.20;96.10;;;;;;5014896;28;19953;-77
2022/03/19 10:42:50;;;;;;;;;;;11.40;97.20;;;;;;5000084;28;19926;-77
2022/03/19 10:45:16;;;;;;;;;;;11.50;94.50;;;;;;5001580;28;19935;-77
2022/03/19 10:47:43;;;;;;;;;;;11.50;95.30;;;;;;5000188;28;19926;-77
2022/03/19 10:50:10;;;;;;;;;;;11.50;94.40;;;;;;5016844;28;19933;-77
2022/03/19 10:52:37;;;;;;;;;;;11.50;94.90;;;;;;5015259;28;20296;-77
2022/03/19 10:55:04;;;;;;;;;;;11.50;95.20;;;;;;5001072;28;19999;-77
2022/03/19 10:57:31;;;;;;;;;;;11.40;94.60;;;;;;5001977;28;19932;-77
2022/03/19 10:59:57;;;;;;;;;;;11.70;94.80;;;;;;4997873;28;19926;-78
2022/03/19 11:02:24;;;;;;;;;;;11.60;93.20;;;;;;5014571;28;19932;-77
2022/03/19 11:04:50;;;;;;;;;;;11.70;93.10;;;;;;5017828;28;19925;-75
2022/03/19 11:07:17;;;;;;;;;;;11.70;93.30;;;;;;5030328;28;19925;-77
2022/03/19 11:09:43;;;;;;;;;;;11.70;94.30;;;;;;5008607;28;20375;-80
2022/03/19 11:12:10;;;;;;;;;;;11.90;92.50;;;;;;5008555;28;20353;-77
2022/03/19 11:14:36;;;;;;;;;;;11.90;91.90;;;;;;5002852;28;19932;-76
2022/03/19 11:19:49;;;;;;;;;;;11.70;90.90;;;;;;5007595;28;19929;-77
2022/03/19 11:22:16;;;;;;;;;;;11.80;92.20;;;;;;5019631;28;19929;-77
2022/03/19 11:24:43;;;;;;;;;;;11.80;92.10;;;;;;5019801;28;19929;-79
2022/03/19 11:27:09;;;;;;;;;;;12.00;90.90;;;;;;5018199;28;19959;-77
2022/03/19 11:29:36;;;;;;;;;;;12.00;92.40;;;;;;5002583;28;19965;-76
2022/03/19 11:32:05;;;;;;;;;;;11.60;91.30;;;;;;5004404;28;19925;-76
2022/03/19 11:34:32;;;;;;;;;;;11.90;91.10;;;;;;5002202;28;19972;-77
2022/03/19 11:36:58;;;;;;;;;;;12.00;91.30;;;;;;5027371;28;19925;-76
2022/03/19 11:39:25;;;;;;;;;;;11.80;90.20;;;;;;5014666;28;19925;-77
2022/03/19 11:41:51;;;;;;;;;;;11.90;90.30;;;;;;5016431;28;19933;-76
2022/03/19 11:44:18;;;;;;;;;;;11.80;90.20;;;;;;5031034;28;19932;-76
2022/03/19 11:46:44;;;;;;;;;;;12.00;91.30;;;;;;5012641;28;20438;-79
2022/03/19 11:49:11;;;;;;;;;;;11.90;91.10;;;;;;5032736;28;19925;-77
2022/03/19 11:51:38;;;;;;;;;;;11.90;91.30;;;;;;5010214;28;19965;-76
2022/03/19 11:54:04;;;;;;;;;;;12.10;91.90;;;;;;5028459;28;20527;-76
2022/03/19 11:56:31;;;;;;;;;;;11.90;91.30;;;;;;5025216;28;19926;-76
2022/03/19 11:58:58;;;;;;;;;;;12.00;91.40;;;;;;5012118;28;19929;-76
2022/03/19 12:01:24;;;;;;;;;;;12.00;91.80;;;;;;5026896;28;20407;-76
2022/03/19 12:03:51;;;;;;;;;;;12.10;91.30;;;;;;5013496;28;19929;-76
2022/03/19 12:06:17;;;;;;;;;;;12.00;91.60;;;;;;5019939;28;19929;-76
2022/03/19 12:08:44;;;;;;;;;;;12.00;91.30;;;;;;5006344;28;19932;-76
2022/03/19 12:11:10;;;;;;;;;;;12.20;89.10;;;;;;5026306;28;19925;-76
2022/03/19 12:13:37;;;;;;;;;;;12.20;90.50;;;;;;5023858;28;19936;-76
2022/03/19 12:16:04;;;;;;;;;;;12.10;90.30;;;;;;5028835;28;19932;-76
2022/03/19 12:18:32;;;;;;;;;;;12.10;90.40;;;;;;5010430;28;19925;-75
2022/03/19 12:20:59;;;;;;;;;;;12.20;89.70;;;;;;5023324;28;19926;-75
2022/03/19 12:23:27;;;;;;;;;;;12.10;88.40;;;;;;5029945;28;19951;-76
2022/03/19 12:25:54;;;;;;;;;;;12.10;87.90;;;;;;5017551;28;20387;-75
2022/03/19 12:28:21;;;;;;;;;;;12.10;87.10;;;;;;5026239;28;19932;-76
2022/03/19 12:30:47;;;;;;;;;;;12.20;87.80;;;;;;5014307;28;20406;-78
2022/03/19 12:33:14;;;;;;;;;;;12.20;88.20;;;;;;5002060;28;20377;-76
2022/03/19 12:35:40;;;;;;;;;;;12.10;82.50;;;;;;5021908;28;20360;-76
2022/03/19 12:38:07;;;;;;;;;;;12.10;87.50;;;;;;5005942;28;19925;-75
2022/03/19 12:43:14;;;;;;;;;;;12.30;85.40;;;;;;5022405;28;19925;-76
2022/03/19 12:45:40;;;;;;;;;;;12.10;86.20;;;;;;5024930;28;20292;-78
2022/03/19 12:48:07;;;;;;;;;;;12.00;84.00;;;;;;5026051;28;19937;-76
2022/03/19 12:50:33;;;;;;;;;;;12.10;83.60;;;;;;5003280;28;19932;-76
2022/03/19 12:53:00;;;;;;;;;;;12.10;86.30;;;;;;5019874;28;19934;-77
2022/03/19 12:55:26;;;;;;;;;;;12.20;86.50;;;;;;5024612;28;19929;-77
2022/03/19 12:57:53;;;;;;;;;;;12.30;87.00;;;;;;5022559;28;19925;-77
2022/03/19 13:00:20;;;;;;;;;;;12.30;85.50;;;;;;5022707;28;19925;-77
2022/03/19 13:02:46;;;;;;;;;;;12.20;86.80;;;;;;5002837;28;20340;-76
2022/03/19 13:05:13;;;;;;;;;;;12.30;87.70;;;;;;5017676;28;20400;-76
2022/03/19 13:07:39;;;;;;;;;;;12.30;87.50;;;;;;5018963;28;19932;-77
2022/03/19 13:10:06;;;;;;;;;;;12.40;86.70;;;;;;5025437;28;19925;-76
2022/03/19 13:12:33;;;;;;;;;;;12.30;87.20;;;;;;5017627;28;19926;-76
2022/03/19 13:14:59;;;;;;;;;;;12.30;87.20;;;;;;5018666;28;19933;-78
2022/03/19 13:17:26;;;;;;;;;;;12.50;89.60;;;;;;5026986;28;19987;-76
2022/03/19 13:19:53;;;;;;;;;;;12.40;88.90;;;;;;5025334;28;19930;-80
2022/03/19 13:22:20;;;;;;;;;;;12.30;90.40;;;;;;5018950;28;20410;-76
2022/03/19 13:24:47;;;;;;;;;;;12.30;87.10;;;;;;5008096;28;19969;-77
2022/03/19 13:27:13;;;;;;;;;;;12.20;88.10;;;;;;4995434;28;20640;-76
2022/03/19 13:29:40;;;;;;;;;;;12.20;90.10;;;;;;5013474;28;19925;-76
2022/03/19 13:32:06;;;;;;;;;;;12.30;90.40;;;;;;5020552;28;19930;-74
2022/03/19 13:34:33;;;;;;;;;;;12.60;89.50;;;;;;4995991;28;19943;-75
2022/03/19 13:36:59;;;;;;;;;;;12.40;89.50;;;;;;5008932;28;19929;-75
2022/03/19 13:39:26;;;;;;;;;;;12.20;88.50;;;;;;5030539;28;19936;-75
2022/03/19 13:41:52;;;;;;;;;;;12.20;90.30;;;;;;5024241;28;19925;-79
2022/03/19 13:44:19;;;;;;;;;;;12.20;89.30;;;;;;5016201;28;20270;-76
2022/03/19 13:46:46;;;;;;;;;;;12.20;87.40;;;;;;5017852;28;19926;-76
2022/03/19 13:49:14;;;;;;;;;;;12.10;87.70;;;;;;5019869;28;19932;-77
2022/03/19 13:51:41;;;;;;;;;;;12.10;87.80;;;;;;5028993;28;19991;-76
2022/03/19 13:54:07;;;;;;;;;;;12.30;86.80;;;;;;5029512;28;19936;-76
2022/03/19 13:56:34;;;;;;;;;;;12.30;86.70;;;;;;5030499;28;20300;-77
2022/03/19 13:59:00;;;;;;;;;;;12.20;86.70;;;;;;5020400;28;20742;-76
2022/03/19 14:01:27;;;;;;;;;;;12.20;84.30;;;;;;5022750;28;21433;-76
2022/03/19 14:03:53;;;;;;;;;;;12.10;82.00;;;;;;5026523;28;19925;-76
2022/03/19 14:06:20;;;;;;;;;;;12.10;84.00;;;;;;5016085;28;19925;-76
2022/03/19 14:08:46;;;;;;;;;;;12.10;84.20;;;;;;5029928;28;19932;-76
2022/03/19 14:11:13;;;;;;;;;;;12.20;84.10;;;;;;5035120;28;19925;-76
2022/03/19 14:13:42;;;;;;;;;;;12.10;84.10;;;;;;5026805;28;20003;-79
2022/03/19 14:16:09;;;;;;;;;;;12.20;86.20;;;;;;5011630;28;19980;-76
2022/03/19 14:18:36;;;;;;;;;;;12.20;82.80;;;;;;5022165;28;19932;-76
2022/03/19 14:21:03;;;;;;;;;;;12.10;81.70;;;;;;5006317;28;19925;-76
2022/03/19 14:23:30;;;;;;;;;;;12.20;85.90;;;;;;5018935;28;19932;-76
2022/03/19 14:25:56;;;;;;;;;;;12.20;84.70;;;;;;4998646;28;20296;-79
2022/03/19 14:28:23;;;;;;;;;;;12.00;82.10;;;;;;5023051;28;19975;-77
2022/03/19 14:30:49;;;;;;;;;;;11.90;81.10;;;;;;5022807;28;19929;-77
2022/03/19 14:33:16;;;;;;;;;;;12.00;83.70;;;;;;5018843;28;19931;-77
2022/03/19 14:35:42;;;;;;;;;;;11.90;79.00;;;;;;5004673;28;19933;-76
2022/03/19 14:38:09;;;;;;;;;;;11.90;82.30;;;;;;5000115;28;19932;-76
2022/03/19 14:40:35;;;;;;;;;;;12.00;81.90;;;;;;5028750;28;19925;-77